Aviation Digital Data Service (ADDS)

Output produced by METARs form (0018 UTC 17 July 2019)
found at http://www.aviationweather.gov/metar/data/
 
KPAE 162321Z 1700/1724 27007KT P6SM SCT040 BKN250 
     FM170900 21007KT P6SM BKN040 
     FM171200 18010KT P6SM OVC030 
     FM171700 18012G20KT P6SM -RA OVC025 
     FM172100 21012KT P6SM -SHRA BKN025 BKN050
       
TAF AMD KPAM 162127Z 1621/1724 24010KT 9999 SCT030 QNH3002INS 
     BECMG 1712/1713 VRB06KT 9999 SCT020 QNH3033INS TX33/1618Z TN24/1707Z LAST
NO AMDS AFT 1622 NEXT 1710
       
KPBF 162320Z 1700/1724 20007KT P6SM BKN050 
     FM170900 23007KT 4SM BR SCT025 
     FM171500 23009KT P6SM BKN250
       
KPBG 162323Z 1700/1724 20007KT P6SM FEW150 
     FM170800 VRB04KT P6SM VCSH BKN050 
     FM171200 VRB03KT 4SM SHRA BR OVC029 
     FM172200 12006KT P6SM VCSH BKN040
       
KPBI 162331Z 1700/1724 12005KT P6SM SCT025 SCT250 
     FM170200 VRB03KT P6SM FEW025 SCT250 
     FM171500 12010KT P6SM SCT030 SCT060
       
KPDK 162331Z 1700/1724 24010KT P6SM FEW060 SCT250 
     FM170200 VRB03KT P6SM SCT250 
     FM171500 26006KT P6SM FEW035 SCT250 
     FM171800 25010KT P6SM SCT050 SCT250
       
KPDT 162322Z 1700/1724 30011KT P6SM SCT070 
     FM170500 21006KT P6SM SCT200 
     FM171700 26015G23KT P6SM SCT070 BKN120
       
KPDX 162320Z 1700/1724 32006KT P6SM SCT060 SCT250 
     FM170800 VRB04KT P6SM SCT025 BKN050 
     FM171300 18009KT P6SM SCT025 OVC050 
     FM171800 18010KT P6SM -SHRA SCT025 OVC050
       
KPGA 162320Z 1700/1724 22010G20KT P6SM FEW120 
     FM170200 VRB05KT P6SM SKC 
     FM171900 23010G20KT P6SM FEW120
       
KPGD 162335Z 1700/1724 01004KT P6SM FEW070 
     FM170300 VRB03KT P6SM SCT035 BKN150 
     FM171800 22005KT P6SM VCTS FEW045CB SCT080 
     FM172300 29004KT P6SM VCTS FEW040CB SCT120
       
KPGV 162345Z 1700/1724 VRB10G30KT 2SM TSRA BKN006 BKN050CB BKN250 
     FM170100 VRB03KT P6SM SCT050 BKN250 
     FM171400 22008KT P6SM FEW050 SCT250 AMD LTD TO CLD VIS AND WIND
       
KPHF 162332Z 1700/1724 22008KT P6SM BKN150 
     FM170600 22008KT P6SM SCT250 
     FM171800 21010G18KT P6SM SCT250
       
KPHL 162320Z 1700/1806 22009KT P6SM FEW060 BKN200 
     FM172300 24010KT P6SM -SHRA VCTS BKN050CB
       
KPHX 162334Z 1700/1806 27013G21KT P6SM FEW120 FEW200 
     FM170400 25008KT P6SM FEW120 
     FM171000 12006KT P6SM FEW120 
     FM171400 18007KT P6SM FEW120 
     FM172000 25010G18KT P6SM FEW120 SCT250 
     FM180400 25009KT P6SM FEW120
       
KPIA 162330Z 1700/1724 27003KT P6SM SCT030 BKN060 
     TEMPO 1709/1712 4SM BR 
     FM171400 21003KT P6SM SCT030
       
KPIB 162324Z 1700/1724 21005KT P6SM -RA FEW050 BKN120 
     FM170100 17003KT P6SM SCT250 
     FM170900 00000KT 5SM BR BKN250 
     FM171400 25004KT P6SM FEW250
       
KPIE 162335Z 1700/1724 32006KT P6SM VCTS SCT040CB BKN200 
     TEMPO 1700/1702 VRB10G15KT 2SM TSRA BKN020CB OVC040 
     FM170300 VRB03KT P6SM SCT030 BKN200 
     FM171800 31006KT P6SM VCTS FEW045CB SCT250
       
KPIH 162325Z 1700/1724 26011KT P6SM SCT080 OVC120 
     FM170200 22011KT P6SM VCTS SCT070CB OVC120 
     FM170600 22010KT P6SM SKC 
     FM171800 25015G25KT P6SM SCT100 SCT200
       
KPIR 162331Z 1700/1724 11012G17KT P6SM BKN060 
     FM170400 13007KT P6SM VCTS BKN050CB 
     FM171200 13010KT P6SM OVC050
       
KPIT 162320Z 1700/1806 18003KT P6SM SCT150 
     FM171400 21005KT P6SM VCSH BKN050 
     FM171600 21006KT P6SM -SHRA VCTS BKN025CB 
     FM172300 23004KT P6SM BKN030 
     FM180200 28003KT 6SM BR VCSH BKN100 
     FM180500 31003KT 6SM BR BKN015
       
KPKB 162346Z 1700/1724 17004KT P6SM SCT050 
     TEMPO 1700/1701 VRB10G20KT 3SM TSRA OVC028CB 
     FM170400 17004KT P6SM SCT250 
     FM171200 19005KT P6SM BKN035 
     FM171400 21007KT 6SM SHRA OVC026
       
KPMD 162329Z 1700/1724 25020G30KT P6SM SKC 
     FM170500 24014G22KT P6SM SKC 
     FM171000 21006KT P6SM SKC 
     FM171800 24012KT P6SM SKC 
     FM172100 23020G28KT P6SM SKC
       
KPNA 162320Z 1700/1724 27012G22KT P6SM BKN200 
     FM170500 31007KT P6SM SCT200 
     FM172000 27015G22KT P6SM FEW090 AMD LTD TO CLD VIS AND WIND
       
KPNE 162320Z 1700/1724 23007KT P6SM BKN250 
     FM170400 VRB04KT P6SM BKN150 
     FM171400 24008KT P6SM SCT060 BKN200
       
KPNS 162320Z 1700/1724 18009KT P6SM SKC 
     FM170200 VRB03KT P6SM SKC 
     FM171900 18009KT P6SM SCT020
       
TAF KPOB 161700Z 1617/1723 29006KT 9999 VCTS SCT040CB SCT250 QNH3005INS 
     TEMPO 1618/1624 24007KT 8000 -TSRA BKN055CB BKN250 
     BECMG 1623/1624 VRB05KT 9999 NSW FEW060 SCT250 QNH3002INS 
     BECMG 1716/1717 20007KT 9999 SCT050 SCT250 QNH3000INS TX36/1620Z TN24/1710Z
       
KPOU 162338Z 1700/1724 19006KT P6SM SCT060 SCT090 
     FM170200 20005KT P6SM SCT060 BKN100 
     FM171800 21007KT P6SM OVC050 
     TEMPO 1718/1721 3SM -TSRA BKN025CB OVC050 
     FM172100 19008KT 4SM -SHRA OVC025 
     PROB30 1721/1724 1 1/2SM -TSRA OVC015CB
       
KPQI 162334Z 1700/1724 19006KT P6SM -SHRA OVC040 
     FM170600 19006KT P6SM BKN030 
     FM170900 21005KT P6SM VCSH BKN010 
     FM171200 24006KT P6SM VCSH BKN025 
     FM171600 28007KT P6SM BKN050 
     FM172200 33006KT P6SM SCT200
       
KPRB 162329Z 1700/1724 32018G25KT P6SM SKC 
     FM170600 31015KT P6SM SKC 
     FM171200 32005KT P6SM SKC 
     FM171900 23009KT P6SM SKC 
     FM172100 20015G22KT P6SM SKC
       
KPRC 162320Z 1700/1724 22015G25KT P6SM SKC 
     FM170200 20008KT P6SM SKC 
     FM171600 22015G25KT P6SM FEW100
       
KPSC 162322Z 1700/1724 23009KT P6SM SCT060 
     FM170500 22006KT P6SM SCT200 
     FM171700 23015G23KT P6SM SCT080 BKN120
       
KPSF 162338Z 1700/1724 21006KT P6SM SCT060 SCT090 
     FM170300 23005KT P6SM SCT060 BKN100 
     FM171100 24007KT P6SM OVC050 
     TEMPO 1712/1716 3SM -SHRA OVC025 
     FM171600 24006KT P6SM OVC025 
     TEMPO 1716/1720 3SM SHRA OVC015 
     FM172000 25005KT 3SM SHRA OVC025 
     PROB30 1720/1724 1 1/2SM -TSRA OVC015CB
       
KPSM 162320Z 1700/1724 VRB04KT P6SM BKN100 
     FM171000 26007KT P6SM VCSH BKN040 
     FM171900 28007KT P6SM VCTS BKN040CB 
     FM172300 VRB03KT P6SM BKN040
       
KPSP 162320Z 1700/1724 33015G25KT P6SM SKC 
     FM170700 VRB06KT P6SM SKC 
     FM171900 05008KT P6SM SKC 
     FM172200 34012G20KT P6SM SKC
       
KPUB 162321Z 1700/1724 13012KT P6SM VCTS SCT100CB SCT200 
     TEMPO 1700/1701 VRB20G35KT BKN100CB 
     FM170200 30008KT P6SM SCT120 BKN200 
     FM170600 26006KT P6SM SCT250 
     FM171600 28012KT P6SM SCT150 SCT250
       
KPUW 162320Z 1700/1724 VRB05KT P6SM SCT050 BKN150 
     FM170200 VRB04KT P6SM SCT060 SCT200 
     FM171100 23007KT P6SM FEW060 BKN150 
     FM171500 24012G18KT P6SM BKN100 
     FM171800 25014G22KT P6SM SCT060 BKN090
       
KPVD 162322Z 1700/1724 19008KT P6SM SCT250 
     FM170400 21008KT P6SM FEW250 
     FM171500 20010KT P6SM BKN080 
     FM171800 20012KT 6SM BR VCSH BKN090 
     FM172200 21009KT 6SM -RA BR VCTS BKN050CB
       
KPVU 162320Z 1700/1724 VRB04KT P6SM SCT120 
     FM170400 32008KT P6SM SCT120 
     FM171200 VRB04KT P6SM FEW120 
     FM171800 24008KT P6SM SCT120
       
KPWM 162320Z 1700/1724 19005KT P6SM BKN100 
     FM171300 26006KT 6SM -SHRA SCT020 BKN035 
     FM171800 27008KT P6SM VCSH BKN035
       
KPWT 162321Z 1700/1724 VRB04KT P6SM SCT040 BKN250 
     FM170400 21006KT P6SM BKN050 
     FM171200 18008KT P6SM OVC030 
     FM171700 18012KT P6SM -RA OVC025 
     FM172100 21012KT P6SM -SHRA BKN025 BKN050